sensor_id;sensor_type;location;lat;lon;timestamp;temperature;humidity
21772;DHT22;11047;47.904;8.110;2023-05-02T00:02:04;8.80;99.90
21772;DHT22;11047;47.904;8.110;2023-05-02T00:04:44;8.70;99.90
21772;DHT22;11047;47.904;8.110;2023-05-02T00:07:11;8.70;99.90
21772;DHT22;11047;47.904;8.110;2023-05-02T00:09:38;8.70;99.90
21772;DHT22;11047;47.904;8.110;2023-05-02T00:12:06;8.60;99.90
21772;DHT22;11047;47.904;8.110;2023-05-02T00:14:33;8.60;99.90
21772;DHT22;11047;47.904;8.110;2023-05-02T00:17:00;8.50;99.90
21772;DHT22;11047;47.904;8.110;2023-05-02T00:19:27;8.60;99.90
21772;DHT22;11047;47.904;8.110;2023-05-02T00:21:54;8.50;99.90
21772;DHT22;11047;47.904;8.110;2023-05-02T00:24:21;8.60;99.90
21772;DHT22;11047;47.904;8.110;2023-05-02T00:26:48;8.60;99.90
21772;DHT22;11047;47.904;8.110;2023-05-02T00:29:16;8.60;99.90
21772;DHT22;11047;47.904;8.110;2023-05-02T00:31:43;8.60;99.90
21772;DHT22;11047;47.904;8.110;2023-05-02T00:34:11;8.70;99.90
21772;DHT22;11047;47.904;8.110;2023-05-02T00:36:38;8.90;99.90
21772;DHT22;11047;47.904;8.110;2023-05-02T00:39:04;8.70;99.90
21772;DHT22;11047;47.904;8.110;2023-05-02T00:41:31;8.70;99.90
21772;DHT22;11047;47.904;8.110;2023-05-02T00:43:58;8.70;99.90
21772;DHT22;11047;47.904;8.110;2023-05-02T00:46:26;8.70;99.90
21772;DHT22;11047;47.904;8.110;2023-05-02T00:48:53;8.60;99.90
21772;DHT22;11047;47.904;8.110;2023-05-02T00:51:20;8.60;99.90
21772;DHT22;11047;47.904;8.110;2023-05-02T00:53:48;8.60;99.90
21772;DHT22;11047;47.904;8.110;2023-05-02T00:56:15;8.60;99.90
21772;DHT22;11047;47.904;8.110;2023-05-02T00:58:43;8.60;99.90
21772;DHT22;11047;47.904;8.110;2023-05-02T01:01:21;8.60;99.90
21772;DHT22;11047;47.904;8.110;2023-05-02T01:04:03;8.60;99.90
21772;DHT22;11047;47.904;8.110;2023-05-02T01:06:38;8.60;99.90
21772;DHT22;11047;47.904;8.110;2023-05-02T01:09:20;8.50;99.90
21772;DHT22;11047;47.904;8.110;2023-05-02T01:11:52;8.50;99.90
21772;DHT22;11047;47.904;8.110;2023-05-02T01:14:23;8.50;99.90
21772;DHT22;11047;47.904;8.110;2023-05-02T01:16:52;8.60;99.90
21772;DHT22;11047;47.904;8.110;2023-05-02T01:19:25;8.60;99.90
21772;DHT22;11047;47.904;8.110;2023-05-02T01:21:55;8.60;99.90
21772;DHT22;11047;47.904;8.110;2023-05-02T01:24:26;8.60;99.90
21772;DHT22;11047;47.904;8.110;2023-05-02T01:27:02;8.60;99.90
21772;DHT22;11047;47.904;8.110;2023-05-02T01:29:35;8.70;99.90
21772;DHT22;11047;47.904;8.110;2023-05-02T01:32:03;8.70;99.90
21772;DHT22;11047;47.904;8.110;2023-05-02T01:34:32;8.70;99.90
21772;DHT22;11047;47.904;8.110;2023-05-02T01:37:00;8.60;99.90
21772;DHT22;11047;47.904;8.110;2023-05-02T01:39:29;8.60;99.90
21772;DHT22;11047;47.904;8.110;2023-05-02T01:41:58;8.60;99.90
21772;DHT22;11047;47.904;8.110;2023-05-02T01:44:28;8.70;99.90
21772;DHT22;11047;47.904;8.110;2023-05-02T01:46:58;8.60;99.90
21772;DHT22;11047;47.904;8.110;2023-05-02T01:49:26;8.70;99.90
21772;DHT22;11047;47.904;8.110;2023-05-02T01:51:57;8.70;99.90
21772;DHT22;11047;47.904;8.110;2023-05-02T01:54:29;8.70;99.90
21772;DHT22;11047;47.904;8.110;2023-05-02T01:56:57;8.70;99.90
21772;DHT22;11047;47.904;8.110;2023-05-02T01:59:26;8.60;99.90
21772;DHT22;11047;47.904;8.110;2023-05-02T02:01:55;8.60;99.90
21772;DHT22;11047;47.904;8.110;2023-05-02T02:04:24;8.70;99.90
21772;DHT22;11047;47.904;8.110;2023-05-02T02:06:56;8.60;99.90
21772;DHT22;11047;47.904;8.110;2023-05-02T02:09:24;8.70;99.90
21772;DHT22;11047;47.904;8.110;2023-05-02T02:11:56;8.70;99.90
21772;DHT22;11047;47.904;8.110;2023-05-02T02:14:27;8.60;99.90
21772;DHT22;11047;47.904;8.110;2023-05-02T02:16:58;9.00;99.90
21772;DHT22;11047;47.904;8.110;2023-05-02T02:19:29;8.70;99.90
21772;DHT22;11047;47.904;8.110;2023-05-02T02:21:56;8.60;99.90
21772;DHT22;11047;47.904;8.110;2023-05-02T02:24:25;8.60;99.90
21772;DHT22;11047;47.904;8.110;2023-05-02T02:26:52;8.60;99.90
21772;DHT22;11047;47.904;8.110;2023-05-02T02:29:18;8.60;99.90
21772;DHT22;11047;47.904;8.110;2023-05-02T02:31:45;8.60;99.90
21772;DHT22;11047;47.904;8.110;2023-05-02T02:34:12;8.60;99.90
21772;DHT22;11047;47.904;8.110;2023-05-02T02:36:44;8.50;99.90
21772;DHT22;11047;47.904;8.110;2023-05-02T02:39:19;8.50;99.90
21772;DHT22;11047;47.904;8.110;2023-05-02T02:41:59;8.50;99.90
21772;DHT22;11047;47.904;8.110;2023-05-02T02:44:37;8.50;99.90
21772;DHT22;11047;47.904;8.110;2023-05-02T02:47:09;8.50;99.90
21772;DHT22;11047;47.904;8.110;2023-05-02T02:49:46;8.60;99.90
21772;DHT22;11047;47.904;8.110;2023-05-02T02:52:20;8.50;99.90
21772;DHT22;11047;47.904;8.110;2023-05-02T02:54:51;8.50;99.90
21772;DHT22;11047;47.904;8.110;2023-05-02T02:57:25;8.40;99.90
21772;DHT22;11047;47.904;8.110;2023-05-02T02:59:58;8.40;99.90
21772;DHT22;11047;47.904;8.110;2023-05-02T03:02:28;8.30;99.90
21772;DHT22;11047;47.904;8.110;2023-05-02T03:04:56;8.40;99.90
21772;DHT22;11047;47.904;8.110;2023-05-02T03:07:27;8.40;99.90
21772;DHT22;11047;47.904;8.110;2023-05-02T03:09:55;8.30;99.90
21772;DHT22;11047;47.904;8.110;2023-05-02T03:12:23;8.20;99.90
21772;DHT22;11047;47.904;8.110;2023-05-02T03:14:50;8.10;99.90
21772;DHT22;11047;47.904;8.110;2023-05-02T03:17:17;8.20;99.90
21772;DHT22;11047;47.904;8.110;2023-05-02T03:19:44;8.20;99.90
21772;DHT22;11047;47.904;8.110;2023-05-02T03:22:11;8.10;99.90
21772;DHT22;11047;47.904;8.110;2023-05-02T03:24:40;8.10;99.90
21772;DHT22;11047;47.904;8.110;2023-05-02T03:27:06;8.00;99.90
21772;DHT22;11047;47.904;8.110;2023-05-02T03:29:33;8.00;99.90
21772;DHT22;11047;47.904;8.110;2023-05-02T03:32:00;8.10;99.90
21772;DHT22;11047;47.904;8.110;2023-05-02T03:34:27;8.00;99.90
21772;DHT22;11047;47.904;8.110;2023-05-02T03:36:54;8.00;99.90
21772;DHT22;11047;47.904;8.110;2023-05-02T03:39:21;8.00;99.90
21772;DHT22;11047;47.904;8.110;2023-05-02T03:41:49;8.00;99.90
21772;DHT22;11047;47.904;8.110;2023-05-02T03:44:16;8.10;99.90
21772;DHT22;11047;47.904;8.110;2023-05-02T03:46:43;8.20;99.90
21772;DHT22;11047;47.904;8.110;2023-05-02T03:49:10;8.20;99.90
21772;DHT22;11047;47.904;8.110;2023-05-02T03:51:36;8.20;99.90
21772;DHT22;11047;47.904;8.110;2023-05-02T03:54:03;8.20;99.90
21772;DHT22;11047;47.904;8.110;2023-05-02T03:56:30;8.50;99.90
21772;DHT22;11047;47.904;8.110;2023-05-02T03:58:59;8.20;99.90
21772;DHT22;11047;47.904;8.110;2023-05-02T04:01:26;8.20;99.90
21772;DHT22;11047;47.904;8.110;2023-05-02T04:03:52;8.10;99.90
21772;DHT22;11047;47.904;8.110;2023-05-02T04:06:19;8.10;99.90
21772;DHT22;11047;47.904;8.110;2023-05-02T04:08:46;8.20;99.90
21772;DHT22;11047;47.904;8.110;2023-05-02T04:11:14;8.20;99.90
21772;DHT22;11047;47.904;8.110;2023-05-02T04:13:41;8.20;99.90
21772;DHT22;11047;47.904;8.110;2023-05-02T04:16:09;8.20;99.90
21772;DHT22;11047;47.904;8.110;2023-05-02T04:18:36;8.20;99.90
21772;DHT22;11047;47.904;8.110;2023-05-02T04:21:03;8.20;99.90
21772;DHT22;11047;47.904;8.110;2023-05-02T04:23:30;8.20;99.90
21772;DHT22;11047;47.904;8.110;2023-05-02T04:25:57;8.20;99.90
21772;DHT22;11047;47.904;8.110;2023-05-02T04:28:23;8.30;99.90
21772;DHT22;11047;47.904;8.110;2023-05-02T04:30:50;8.30;99.90
21772;DHT22;11047;47.904;8.110;2023-05-02T04:33:19;8.30;99.90
21772;DHT22;11047;47.904;8.110;2023-05-02T04:35:46;8.30;99.90
21772;DHT22;11047;47.904;8.110;2023-05-02T04:38:13;8.30;99.90
21772;DHT22;11047;47.904;8.110;2023-05-02T04:40:40;8.30;99.90
21772;DHT22;11047;47.904;8.110;2023-05-02T04:43:07;8.30;99.90
21772;DHT22;11047;47.904;8.110;2023-05-02T04:45:34;8.30;99.90
21772;DHT22;11047;47.904;8.110;2023-05-02T04:48:02;8.30;99.90
21772;DHT22;11047;47.904;8.110;2023-05-02T04:50:30;8.30;99.90
21772;DHT22;11047;47.904;8.110;2023-05-02T04:52:57;8.20;99.90
21772;DHT22;11047;47.904;8.110;2023-05-02T04:55:24;8.20;99.90
21772;DHT22;11047;47.904;8.110;2023-05-02T04:57:51;8.30;99.90
21772;DHT22;11047;47.904;8.110;2023-05-02T05:00:18;8.20;99.90
21772;DHT22;11047;47.904;8.110;2023-05-02T05:02:46;8.20;99.90
21772;DHT22;11047;47.904;8.110;2023-05-02T05:05:13;8.20;99.90
21772;DHT22;11047;47.904;8.110;2023-05-02T05:07:41;8.30;99.90
21772;DHT22;11047;47.904;8.110;2023-05-02T05:10:08;8.40;99.90
21772;DHT22;11047;47.904;8.110;2023-05-02T05:12:36;8.30;99.90
21772;DHT22;11047;47.904;8.110;2023-05-02T05:15:04;8.40;99.90
21772;DHT22;11047;47.904;8.110;2023-05-02T05:17:31;8.30;99.90
21772;DHT22;11047;47.904;8.110;2023-05-02T05:19:58;8.40;99.90
21772;DHT22;11047;47.904;8.110;2023-05-02T05:22:25;8.30;99.90
21772;DHT22;11047;47.904;8.110;2023-05-02T05:24:53;8.30;99.90
21772;DHT22;11047;47.904;8.110;2023-05-02T05:27:21;8.30;99.90
21772;DHT22;11047;47.904;8.110;2023-05-02T05:29:47;8.50;99.90
21772;DHT22;11047;47.904;8.110;2023-05-02T05:32:14;8.30;99.90
21772;DHT22;11047;47.904;8.110;2023-05-02T05:34:41;8.40;99.90
21772;DHT22;11047;47.904;8.110;2023-05-02T05:37:08;8.40;99.90
21772;DHT22;11047;47.904;8.110;2023-05-02T05:39:35;8.50;99.90
21772;DHT22;11047;47.904;8.110;2023-05-02T05:42:03;8.50;99.90
21772;DHT22;11047;47.904;8.110;2023-05-02T05:44:31;8.50;99.90
21772;DHT22;11047;47.904;8.110;2023-05-02T05:46:58;8.60;99.90
21772;DHT22;11047;47.904;8.110;2023-05-02T05:49:25;8.60;99.90
21772;DHT22;11047;47.904;8.110;2023-05-02T05:51:52;8.60;99.90
21772;DHT22;11047;47.904;8.110;2023-05-02T05:54:19;8.70;99.90
21772;DHT22;11047;47.904;8.110;2023-05-02T05:56:45;8.80;99.90
21772;DHT22;11047;47.904;8.110;2023-05-02T05:59:14;8.70;99.90
21772;DHT22;11047;47.904;8.110;2023-05-02T06:01:41;8.80;99.90
21772;DHT22;11047;47.904;8.110;2023-05-02T06:04:08;8.70;99.90
21772;DHT22;11047;47.904;8.110;2023-05-02T06:06:35;8.80;99.90
21772;DHT22;11047;47.904;8.110;2023-05-02T06:09:02;8.80;99.90
21772;DHT22;11047;47.904;8.110;2023-05-02T06:11:29;8.70;99.90
21772;DHT22;11047;47.904;8.110;2023-05-02T06:13:56;8.80;99.90
21772;DHT22;11047;47.904;8.110;2023-05-02T06:16:25;8.90;99.90
21772;DHT22;11047;47.904;8.110;2023-05-02T06:18:52;9.00;99.90
21772;DHT22;11047;47.904;8.110;2023-05-02T06:21:18;9.00;99.90
21772;DHT22;11047;47.904;8.110;2023-05-02T06:23:45;9.20;99.90
21772;DHT22;11047;47.904;8.110;2023-05-02T06:26:12;9.00;99.90
21772;DHT22;11047;47.904;8.110;2023-05-02T06:28:39;9.00;99.90
21772;DHT22;11047;47.904;8.110;2023-05-02T06:31:06;9.00;99.90
21772;DHT22;11047;47.904;8.110;2023-05-02T06:33:35;9.00;99.90
21772;DHT22;11047;47.904;8.110;2023-05-02T06:36:02;9.00;99.90
21772;DHT22;11047;47.904;8.110;2023-05-02T06:38:29;9.10;99.90
21772;DHT22;11047;47.904;8.110;2023-05-02T06:40:56;9.30;99.90
21772;DHT22;11047;47.904;8.110;2023-05-02T06:43:23;10.30;99.90
21772;DHT22;11047;47.904;8.110;2023-05-02T06:45:52;10.00;99.90
21772;DHT22;11047;47.904;8.110;2023-05-02T06:48:19;10.00;99.90
21772;DHT22;11047;47.904;8.110;2023-05-02T06:50:50;9.80;99.90
21772;DHT22;11047;47.904;8.110;2023-05-02T06:53:17;9.70;99.90
21772;DHT22;11047;47.904;8.110;2023-05-02T06:55:44;9.80;99.90
21772;DHT22;11047;47.904;8.110;2023-05-02T06:58:11;9.90;99.90
21772;DHT22;11047;47.904;8.110;2023-05-02T07:00:38;9.90;99.90
21772;DHT22;11047;47.904;8.110;2023-05-02T07:03:05;9.90;99.90
21772;DHT22;11047;47.904;8.110;2023-05-02T07:05:32;9.80;99.90
21772;DHT22;11047;47.904;8.110;2023-05-02T07:08:00;10.00;99.90
21772;DHT22;11047;47.904;8.110;2023-05-02T07:10:27;9.90;99.90
21772;DHT22;11047;47.904;8.110;2023-05-02T07:12:54;9.80;99.90
21772;DHT22;11047;47.904;8.110;2023-05-02T07:15:21;9.80;99.90
21772;DHT22;11047;47.904;8.110;2023-05-02T07:18:01;9.90;99.90
21772;DHT22;11047;47.904;8.110;2023-05-02T07:20:28;10.00;99.90
21772;DHT22;11047;47.904;8.110;2023-05-02T07:22:55;10.10;99.90
21772;DHT22;11047;47.904;8.110;2023-05-02T07:25:23;10.20;99.90
21772;DHT22;11047;47.904;8.110;2023-05-02T07:27:50;10.30;99.90
21772;DHT22;11047;47.904;8.110;2023-05-02T07:30:17;10.20;99.90
21772;DHT22;11047;47.904;8.110;2023-05-02T07:32:44;10.30;99.90
21772;DHT22;11047;47.904;8.110;2023-05-02T07:35:11;10.10;99.90
21772;DHT22;11047;47.904;8.110;2023-05-02T07:37:38;10.30;99.90
21772;DHT22;11047;47.904;8.110;2023-05-02T07:40:06;10.50;99.90
21772;DHT22;11047;47.904;8.110;2023-05-02T07:42:35;10.60;99.90
21772;DHT22;11047;47.904;8.110;2023-05-02T07:45:02;10.70;99.90
21772;DHT22;11047;47.904;8.110;2023-05-02T07:47:29;10.90;99.90
21772;DHT22;11047;47.904;8.110;2023-05-02T07:49:55;11.10;99.90
21772;DHT22;11047;47.904;8.110;2023-05-02T07:52:22;11.10;99.90
21772;DHT22;11047;47.904;8.110;2023-05-02T07:54:49;11.40;99.90
21772;DHT22;11047;47.904;8.110;2023-05-02T07:57:16;11.70;99.90
21772;DHT22;11047;47.904;8.110;2023-05-02T07:59:45;11.80;99.90
21772;DHT22;11047;47.904;8.110;2023-05-02T08:02:12;11.90;99.90
21772;DHT22;11047;47.904;8.110;2023-05-02T08:04:41;12.00;99.90
21772;DHT22;11047;47.904;8.110;2023-05-02T08:07:08;12.20;99.90
21772;DHT22;11047;47.904;8.110;2023-05-02T08:09:35;12.40;99.90
21772;DHT22;11047;47.904;8.110;2023-05-02T08:12:02;12.60;99.90
21772;DHT22;11047;47.904;8.110;2023-05-02T08:14:30;12.80;99.90
21772;DHT22;11047;47.904;8.110;2023-05-02T08:16:58;13.10;99.90
21772;DHT22;11047;47.904;8.110;2023-05-02T08:19:25;13.40;99.90
21772;DHT22;11047;47.904;8.110;2023-05-02T08:21:53;13.40;99.90
21772;DHT22;11047;47.904;8.110;2023-05-02T08:24:20;13.10;99.90
21772;DHT22;11047;47.904;8.110;2023-05-02T08:26:46;13.10;99.90
21772;DHT22;11047;47.904;8.110;2023-05-02T08:29:13;13.00;99.90
21772;DHT22;11047;47.904;8.110;2023-05-02T08:31:40;12.60;99.90
21772;DHT22;11047;47.904;8.110;2023-05-02T08:34:08;12.50;99.90
21772;DHT22;11047;47.904;8.110;2023-05-02T08:36:35;12.30;99.90
21772;DHT22;11047;47.904;8.110;2023-05-02T08:39:03;11.80;99.90
21772;DHT22;11047;47.904;8.110;2023-05-02T08:41:29;11.80;99.90
21772;DHT22;11047;47.904;8.110;2023-05-02T08:43:56;11.80;99.90
21772;DHT22;11047;47.904;8.110;2023-05-02T08:46:25;11.60;99.90
21772;DHT22;11047;47.904;8.110;2023-05-02T08:48:53;11.60;99.90
21772;DHT22;11047;47.904;8.110;2023-05-02T08:51:25;11.50;99.90
21772;DHT22;11047;47.904;8.110;2023-05-02T08:53:53;11.60;99.90
21772;DHT22;11047;47.904;8.110;2023-05-02T08:56:20;11.60;99.90
21772;DHT22;11047;47.904;8.110;2023-05-02T08:58:47;11.50;99.90
21772;DHT22;11047;47.904;8.110;2023-05-02T09:01:15;11.50;99.90
21772;DHT22;11047;47.904;8.110;2023-05-02T09:03:43;11.50;99.90
21772;DHT22;11047;47.904;8.110;2023-05-02T09:06:12;11.50;99.90
21772;DHT22;11047;47.904;8.110;2023-05-02T09:08:41;11.60;99.90
21772;DHT22;11047;47.904;8.110;2023-05-02T09:11:09;11.60;99.90
21772;DHT22;11047;47.904;8.110;2023-05-02T09:13:37;11.50;99.90
21772;DHT22;11047;47.904;8.110;2023-05-02T09:16:07;11.60;99.90
21772;DHT22;11047;47.904;8.110;2023-05-02T09:18:36;11.60;99.90
21772;DHT22;11047;47.904;8.110;2023-05-02T09:21:04;11.50;99.90
21772;DHT22;11047;47.904;8.110;2023-05-02T09:23:45;11.50;99.90
21772;DHT22;11047;47.904;8.110;2023-05-02T09:26:15;11.70;99.90
21772;DHT22;11047;47.904;8.110;2023-05-02T09:28:43;11.60;99.90
21772;DHT22;11047;47.904;8.110;2023-05-02T09:31:11;11.70;99.90
21772;DHT22;11047;47.904;8.110;2023-05-02T09:33:39;11.90;99.90
21772;DHT22;11047;47.904;8.110;2023-05-02T09:36:07;12.10;99.90
21772;DHT22;11047;47.904;8.110;2023-05-02T09:38:34;12.10;99.90
21772;DHT22;11047;47.904;8.110;2023-05-02T09:41:03;12.10;99.90
21772;DHT22;11047;47.904;8.110;2023-05-02T09:43:30;12.30;99.90
21772;DHT22;11047;47.904;8.110;2023-05-02T09:45:59;12.30;99.90
21772;DHT22;11047;47.904;8.110;2023-05-02T09:48:27;12.50;99.90
21772;DHT22;11047;47.904;8.110;2023-05-02T09:50:54;12.50;99.90
21772;DHT22;11047;47.904;8.110;2023-05-02T09:53:23;12.70;99.90
21772;DHT22;11047;47.904;8.110;2023-05-02T09:55:59;12.90;99.90
21772;DHT22;11047;47.904;8.110;2023-05-02T09:58:27;13.20;99.90
21772;DHT22;11047;47.904;8.110;2023-05-02T10:00:55;13.20;99.90
21772;DHT22;11047;47.904;8.110;2023-05-02T10:03:24;13.40;99.90
21772;DHT22;11047;47.904;8.110;2023-05-02T10:05:51;13.40;99.90
21772;DHT22;11047;47.904;8.110;2023-05-02T10:08:20;13.40;99.90
21772;DHT22;11047;47.904;8.110;2023-05-02T10:10:51;13.70;99.90
21772;DHT22;11047;47.904;8.110;2023-05-02T10:13:19;13.80;99.90
21772;DHT22;11047;47.904;8.110;2023-05-02T10:15:55;14.00;99.90
21772;DHT22;11047;47.904;8.110;2023-05-02T10:18:27;14.00;99.90
21772;DHT22;11047;47.904;8.110;2023-05-02T10:20:59;14.00;99.90
21772;DHT22;11047;47.904;8.110;2023-05-02T10:23:28;14.20;99.90
21772;DHT22;11047;47.904;8.110;2023-05-02T10:25:56;14.20;99.90
21772;DHT22;11047;47.904;8.110;2023-05-02T10:28:24;14.00;99.90
21772;DHT22;11047;47.904;8.110;2023-05-02T10:30:53;14.00;99.90
21772;DHT22;11047;47.904;8.110;2023-05-02T10:33:21;13.90;99.90
21772;DHT22;11047;47.904;8.110;2023-05-02T10:35:48;13.90;99.90
21772;DHT22;11047;47.904;8.110;2023-05-02T10:38:18;14.00;99.90
21772;DHT22;11047;47.904;8.110;2023-05-02T10:40:52;14.40;99.90
21772;DHT22;11047;47.904;8.110;2023-05-02T10:43:22;14.20;99.90
21772;DHT22;11047;47.904;8.110;2023-05-02T10:45:50;14.20;99.90
21772;DHT22;11047;47.904;8.110;2023-05-02T10:48:20;14.20;99.90
21772;DHT22;11047;47.904;8.110;2023-05-02T10:50:48;13.90;99.90
21772;DHT22;11047;47.904;8.110;2023-05-02T10:53:27;13.90;99.90
21772;DHT22;11047;47.904;8.110;2023-05-02T10:56:14;13.70;99.90
21772;DHT22;11047;47.904;8.110;2023-05-02T10:58:42;13.60;99.90
21772;DHT22;11047;47.904;8.110;2023-05-02T11:01:34;13.60;99.90
21772;DHT22;11047;47.904;8.110;2023-05-02T11:04:07;13.50;99.90
21772;DHT22;11047;47.904;8.110;2023-05-02T11:06:36;13.50;99.90
21772;DHT22;11047;47.904;8.110;2023-05-02T11:09:31;13.50;99.90
21772;DHT22;11047;47.904;8.110;2023-05-02T11:11:58;13.40;99.90
21772;DHT22;11047;47.904;8.110;2023-05-02T11:14:45;13.50;99.90
21772;DHT22;11047;47.904;8.110;2023-05-02T11:17:13;13.50;99.90
21772;DHT22;11047;47.904;8.110;2023-05-02T11:22:58;13.40;99.90
21772;DHT22;11047;47.904;8.110;2023-05-02T11:25:35;13.40;99.90
21772;DHT22;11047;47.904;8.110;2023-05-02T11:28:03;13.30;99.90
21772;DHT22;11047;47.904;8.110;2023-05-02T11:30:40;13.50;99.90
21772;DHT22;11047;47.904;8.110;2023-05-02T11:33:17;13.50;99.90
21772;DHT22;11047;47.904;8.110;2023-05-02T11:35:48;13.70;99.90
21772;DHT22;11047;47.904;8.110;2023-05-02T11:38:22;13.90;99.90
21772;DHT22;11047;47.904;8.110;2023-05-02T11:40:54;13.70;99.90
21772;DHT22;11047;47.904;8.110;2023-05-02T11:43:22;13.60;99.90
21772;DHT22;11047;47.904;8.110;2023-05-02T11:45:50;13.50;99.90
21772;DHT22;11047;47.904;8.110;2023-05-02T11:48:18;13.60;99.90
21772;DHT22;11047;47.904;8.110;2023-05-02T11:50:48;13.70;99.90
21772;DHT22;11047;47.904;8.110;2023-05-02T11:53:17;13.80;99.90
21772;DHT22;11047;47.904;8.110;2023-05-02T11:55:50;13.50;99.90
21772;DHT22;11047;47.904;8.110;2023-05-02T11:58:18;13.30;99.90
21772;DHT22;11047;47.904;8.110;2023-05-02T12:00:46;13.20;99.90
21772;DHT22;11047;47.904;8.110;2023-05-02T12:03:27;13.00;99.90
21772;DHT22;11047;47.904;8.110;2023-05-02T12:05:54;13.00;99.90
21772;DHT22;11047;47.904;8.110;2023-05-02T12:08:25;12.90;99.90
21772;DHT22;11047;47.904;8.110;2023-05-02T12:10:55;13.10;99.90
21772;DHT22;11047;47.904;8.110;2023-05-02T12:13:23;13.30;99.90
21772;DHT22;11047;47.904;8.110;2023-05-02T12:15:51;13.30;99.90
21772;DHT22;11047;47.904;8.110;2023-05-02T12:18:20;13.30;99.90
21772;DHT22;11047;47.904;8.110;2023-05-02T12:20:49;13.30;99.90
21772;DHT22;11047;47.904;8.110;2023-05-02T12:23:17;13.40;99.90
21772;DHT22;11047;47.904;8.110;2023-05-02T12:25:45;13.50;99.90
21772;DHT22;11047;47.904;8.110;2023-05-02T12:28:17;14.00;99.90
21772;DHT22;11047;47.904;8.110;2023-05-02T12:30:47;14.50;99.90
21772;DHT22;11047;47.904;8.110;2023-05-02T12:33:14;14.70;99.90
21772;DHT22;11047;47.904;8.110;2023-05-02T12:35:42;14.90;99.90
21772;DHT22;11047;47.904;8.110;2023-05-02T12:38:12;15.20;99.90
21772;DHT22;11047;47.904;8.110;2023-05-02T12:40:46;15.50;99.90
21772;DHT22;11047;47.904;8.110;2023-05-02T12:43:14;15.50;99.90
21772;DHT22;11047;47.904;8.110;2023-05-02T12:45:41;15.70;99.90
21772;DHT22;11047;47.904;8.110;2023-05-02T12:48:22;16.00;99.90
21772;DHT22;11047;47.904;8.110;2023-05-02T12:50:50;16.10;99.90
21772;DHT22;11047;47.904;8.110;2023-05-02T12:53:36;16.60;99.90
21772;DHT22;11047;47.904;8.110;2023-05-02T12:56:05;16.50;99.90
21772;DHT22;11047;47.904;8.110;2023-05-02T12:58:41;16.60;99.90
21772;DHT22;11047;47.904;8.110;2023-05-02T13:01:08;16.70;99.90
21772;DHT22;11047;47.904;8.110;2023-05-02T13:03:35;16.70;99.90
21772;DHT22;11047;47.904;8.110;2023-05-02T13:06:02;16.30;99.90
21772;DHT22;11047;47.904;8.110;2023-05-02T13:08:29;15.80;99.90
21772;DHT22;11047;47.904;8.110;2023-05-02T13:10:57;15.80;99.90
21772;DHT22;11047;47.904;8.110;2023-05-02T13:13:24;16.20;99.90
21772;DHT22;11047;47.904;8.110;2023-05-02T13:15:52;16.10;99.90
21772;DHT22;11047;47.904;8.110;2023-05-02T13:18:19;16.30;99.90
21772;DHT22;11047;47.904;8.110;2023-05-02T13:20:46;15.90;99.90
21772;DHT22;11047;47.904;8.110;2023-05-02T13:23:12;16.00;99.90
21772;DHT22;11047;47.904;8.110;2023-05-02T13:25:41;15.80;99.90
21772;DHT22;11047;47.904;8.110;2023-05-02T13:28:08;15.60;99.90
21772;DHT22;11047;47.904;8.110;2023-05-02T13:30:35;15.50;99.90
21772;DHT22;11047;47.904;8.110;2023-05-02T13:33:03;15.50;99.90
21772;DHT22;11047;47.904;8.110;2023-05-02T13:35:30;15.60;99.90
21772;DHT22;11047;47.904;8.110;2023-05-02T13:37:57;16.00;99.90
21772;DHT22;11047;47.904;8.110;2023-05-02T13:40:24;16.00;99.90
21772;DHT22;11047;47.904;8.110;2023-05-02T13:42:50;15.70;99.90
21772;DHT22;11047;47.904;8.110;2023-05-02T13:45:17;15.50;99.90
21772;DHT22;11047;47.904;8.110;2023-05-02T13:47:44;15.30;99.90
21772;DHT22;11047;47.904;8.110;2023-05-02T13:50:13;15.10;99.90
21772;DHT22;11047;47.904;8.110;2023-05-02T13:52:39;15.00;99.90
21772;DHT22;11047;47.904;8.110;2023-05-02T13:55:07;14.90;99.90
21772;DHT22;11047;47.904;8.110;2023-05-02T13:57:34;15.40;99.90
21772;DHT22;11047;47.904;8.110;2023-05-02T14:00:01;15.50;99.90
21772;DHT22;11047;47.904;8.110;2023-05-02T14:02:28;15.60;99.90
21772;DHT22;11047;47.904;8.110;2023-05-02T14:04:55;15.60;99.90
21772;DHT22;11047;47.904;8.110;2023-05-02T14:07:23;15.60;99.90
21772;DHT22;11047;47.904;8.110;2023-05-02T14:09:50;15.90;99.90
21772;DHT22;11047;47.904;8.110;2023-05-02T14:12:17;16.10;99.90
21772;DHT22;11047;47.904;8.110;2023-05-02T14:14:44;15.90;99.90
21772;DHT22;11047;47.904;8.110;2023-05-02T14:17:11;15.70;99.90
21772;DHT22;11047;47.904;8.110;2023-05-02T14:19:37;15.90;99.90
21772;DHT22;11047;47.904;8.110;2023-05-02T14:22:04;15.60;99.90
21772;DHT22;11047;47.904;8.110;2023-05-02T14:24:33;15.40;99.90
21772;DHT22;11047;47.904;8.110;2023-05-02T14:27:00;15.30;99.90
21772;DHT22;11047;47.904;8.110;2023-05-02T14:29:27;15.20;99.90
21772;DHT22;11047;47.904;8.110;2023-05-02T14:31:53;15.30;99.90
21772;DHT22;11047;47.904;8.110;2023-05-02T14:34:20;15.20;99.90
21772;DHT22;11047;47.904;8.110;2023-05-02T14:36:51;15.20;99.90
21772;DHT22;11047;47.904;8.110;2023-05-02T14:39:18;15.00;99.90
21772;DHT22;11047;47.904;8.110;2023-05-02T14:41:46;14.80;99.90
21772;DHT22;11047;47.904;8.110;2023-05-02T14:44:13;14.40;99.90
21772;DHT22;11047;47.904;8.110;2023-05-02T14:46:40;14.20;99.90
21772;DHT22;11047;47.904;8.110;2023-05-02T14:49:07;13.80;99.90
21772;DHT22;11047;47.904;8.110;2023-05-02T14:51:36;13.60;99.90
21772;DHT22;11047;47.904;8.110;2023-05-02T14:54:03;13.30;99.90
21772;DHT22;11047;47.904;8.110;2023-05-02T14:56:31;13.30;99.90
21772;DHT22;11047;47.904;8.110;2023-05-02T14:58:59;13.20;99.90
21772;DHT22;11047;47.904;8.110;2023-05-02T15:01:26;13.30;99.90
21772;DHT22;11047;47.904;8.110;2023-05-02T15:03:53;13.30;99.90
21772;DHT22;11047;47.904;8.110;2023-05-02T15:06:20;13.40;99.90
21772;DHT22;11047;47.904;8.110;2023-05-02T15:08:47;13.50;99.90
21772;DHT22;11047;47.904;8.110;2023-05-02T15:11:14;13.40;99.90
21772;DHT22;11047;47.904;8.110;2023-05-02T15:13:41;13.40;99.90
21772;DHT22;11047;47.904;8.110;2023-05-02T15:16:10;13.40;99.90
21772;DHT22;11047;47.904;8.110;2023-05-02T15:18:37;13.30;99.90
21772;DHT22;11047;47.904;8.110;2023-05-02T15:21:04;13.30;99.90
21772;DHT22;11047;47.904;8.110;2023-05-02T15:23:31;13.20;99.90
21772;DHT22;11047;47.904;8.110;2023-05-02T15:25:58;13.30;99.90
21772;DHT22;11047;47.904;8.110;2023-05-02T15:28:25;13.30;99.90
21772;DHT22;11047;47.904;8.110;2023-05-02T15:30:52;13.30;99.90
21772;DHT22;11047;47.904;8.110;2023-05-02T15:33:20;13.30;99.90
21772;DHT22;11047;47.904;8.110;2023-05-02T15:35:52;13.40;99.90
21772;DHT22;11047;47.904;8.110;2023-05-02T15:38:19;13.50;99.90
21772;DHT22;11047;47.904;8.110;2023-05-02T15:40:52;13.70;99.90
21772;DHT22;11047;47.904;8.110;2023-05-02T15:43:20;14.00;99.90
21772;DHT22;11047;47.904;8.110;2023-05-02T15:45:50;14.00;99.90
21772;DHT22;11047;47.904;8.110;2023-05-02T15:48:17;14.10;99.90
21772;DHT22;11047;47.904;8.110;2023-05-02T15:50:45;14.00;99.90